Pagrindinis puslapis
METAR-TAF:

METAR-TAF

Oro uostai :

Vitebskas, Baltarusija

platuma: 55-10N, ilguma: 030-13E, Aukštis: 176 m

Dabartinis oras

Ataskaita buvo paskelbta 33 minutes, ne 09:30 UTC
Vėjas 8 kt iš Pietų
Temperatūra 9°C
Drėgmė 81%
Slėgis 1015 hPa
Matomumas: 8000 m
Su prošvaistėmis ne aukštis 1900 ft

METAR: UMII 290930Z 17004MPS 8000 BKN019 09/06 Q1015 R23/CLRD// NOSIG

Laikas: 13:03 (10:03 UTC)

Prognozė

Ataskaita buvo paskelbta 1 valandą ir 59 minutes, ne 08:04 UTC
Prognozė galioja nuo 29 metu 09 UTC su 29 metu 18 UTC
Vėjas 12 kt iš Pietų/Pietryčių
Matomumas: 6000 m
Su prošvaistėmis ne aukštis 1500 ft
Laikinai
nuo 29 metu 09 UTC su 29 metu 18 UTC
Vėjas 6 kt iš Pietų su gūsio iki 16 kt
Išsisklaidę debesys ne aukštis 500 ft
Su prošvaistėmis ne aukštis 1700 ft, Liūtiniai kamuoliniai debesys.

TAF: UMII 290804Z 2909/2918 16006MPS 6000 BKN015 TEMPO 2909/2918 17003G08MPS SCT005 BKN017CB

Orai ataskaitas ir orų prognozės (METAR, TAF).

turimą stotys yra geltonos ir raudonos taškus žemėlapyje.

Perkelti pele per norėdami pamatyti stoties vardą.

Tada spustelėkite, norėdami matyti oro stebėjimo ir prognozės.

Norėdami pakeisti žemėlapį: spustelėkite ant žalios mygtukų su juodo kryžiaus žemyn,; žalią mygtuką su brūkšneliu, jei norite nutolinti; arba žalių rodyklių gretimoms žemėlapius.


METAR-TAF: